Time;durP1;ratioP1;P1;durP2;ratioP2;P2;SDS_P1;SDS_P2;PMS_P1;PMS_P2;Temp;Humidity;BMP_temperature;BMP_pressure;BME280_temperature;BME280_humidity;BME280_pressure;Samples;Min_cycle;Max_cycle;Signal;HPM_P1;HPM_P2
2022/11/13 00:01:17;;;;;;;239.70;48.17;;;5.00;99.90;;;4.73;98.76;99145.59;4979423;28;20460;-71
2022/11/13 00:03:44;;;;;;;237.13;46.73;;;4.90;99.90;;;4.59;99.54;99135.41;4979233;28;20785;-70
2022/11/13 00:06:14;;;;;;;324.60;53.93;;;4.90;99.90;;;4.58;99.95;99136.41;4989304;28;20459;-74
2022/11/13 00:08:42;;;;;;;415.27;62.20;;;4.80;99.90;;;4.46;100.00;99141.13;4988385;28;20444;-71
2022/11/13 00:11:17;;;;;;;317.13;54.80;;;4.80;99.90;;;4.64;100.00;99136.66;4973906;28;20942;-72
2022/11/13 00:13:45;;;;;;;525.37;77.33;;;4.90;99.90;;;4.86;99.96;99128.34;4972966;28;20546;-72
2022/11/13 00:16:15;;;;;;;164.93;42.20;;;5.00;99.90;;;4.79;99.94;99137.00;4974799;28;20501;-71
2022/11/13 00:18:44;;;;;;;256.90;48.70;;;5.00;99.90;;;4.73;99.46;99134.91;4974373;28;20447;-72
2022/11/13 00:21:17;;;;;;;480.47;68.07;;;4.90;99.90;;;4.68;99.92;99135.34;4979318;28;20511;-70
2022/11/13 00:23:44;;;;;;;464.67;70.00;;;4.90;99.90;;;4.50;99.52;99095.19;4990825;28;20502;-71
2022/11/13 00:26:15;;;;;;;184.13;43.77;;;4.90;99.90;;;4.92;99.26;99125.91;4964056;28;20464;-72
2022/11/13 00:28:42;;;;;;;181.03;43.93;;;5.00;99.90;;;4.67;99.08;99133.66;4960539;28;20509;-71
2022/11/13 00:31:14;;;;;;;342.97;56.23;;;4.90;99.90;;;4.51;100.00;99123.63;4982749;28;20481;-72
2022/11/13 00:33:41;;;;;;;283.93;56.73;;;4.80;99.90;;;4.41;100.00;99122.81;4979753;28;20490;-70
2022/11/13 00:36:15;;;;;;;317.40;56.23;;;4.70;99.90;;;4.35;100.00;99118.06;4988563;28;20451;-71
2022/11/13 00:38:43;;;;;;;306.93;52.40;;;4.70;99.90;;;4.48;100.00;99129.28;4988120;28;20460;-73
2022/11/13 00:41:10;;;;;;;202.47;45.97;;;4.70;99.90;;;4.33;100.00;99106.69;4987998;28;20452;-72
2022/11/13 00:43:37;;;;;;;362.43;61.30;;;4.70;99.90;;;4.44;99.70;99122.53;4991062;28;20450;-72
2022/11/13 00:46:05;;;;;;;489.50;71.33;;;4.70;99.90;;;4.27;99.79;99117.97;4969803;28;20452;-74
2022/11/13 00:48:33;;;;;;;209.23;48.70;;;4.60;99.90;;;4.44;100.00;99127.03;4976839;28;20463;-73
2022/11/13 00:51:01;;;;;;;487.97;65.27;;;4.70;99.90;;;4.31;99.53;99125.56;4978596;28;20476;-73
2022/11/13 00:53:29;;;;;;;445.80;64.73;;;4.60;99.90;;;4.22;99.73;99121.94;4970987;28;20452;-72
2022/11/13 00:55:59;;;;;;;444.03;61.07;;;4.50;99.90;;;4.15;99.92;99120.00;4987488;28;20475;-72
2022/11/13 00:58:26;;;;;;;257.63;49.50;;;4.40;99.90;;;4.22;100.00;99121.94;4987271;28;20467;-71
2022/11/13 01:00:54;;;;;;;432.07;61.10;;;4.40;99.90;;;3.97;99.89;99134.13;4986077;28;20514;-73
2022/11/13 01:03:21;;;;;;;238.10;47.20;;;4.30;99.90;;;4.00;99.99;99104.41;4976486;28;20452;-71
2022/11/13 01:05:48;;;;;;;404.23;58.90;;;4.30;99.90;;;3.88;100.00;99122.47;4994542;28;20532;-72
2022/11/13 01:08:16;;;;;;;272.30;50.67;;;4.20;99.90;;;3.88;99.81;99108.25;4994216;28;20802;-72
2022/11/13 01:10:48;;;;;;;314.53;49.90;;;4.20;99.90;;;3.78;99.97;99110.97;4978761;28;20511;-69
2022/11/13 01:13:16;;;;;;;110.07;36.93;;;4.20;99.90;;;3.94;100.00;99113.88;4974637;28;20442;-72
2022/11/13 01:15:45;;;;;;;137.40;38.73;;;4.10;99.90;;;3.97;99.19;99110.91;4981946;28;20457;-70
2022/11/13 01:18:12;;;;;;;380.87;51.53;;;4.20;99.90;;;3.65;100.00;99112.09;4993922;28;20463;-70
2022/11/13 01:20:40;;;;;;;120.33;34.57;;;4.10;99.90;;;3.97;99.91;99104.72;4977157;28;20547;-73
2022/11/13 01:23:07;;;;;;;241.37;50.20;;;4.10;99.90;;;3.82;98.48;99107.00;4993628;28;20451;-72
2022/11/13 01:25:35;;;;;;;263.03;46.77;;;4.10;99.90;;;3.54;99.66;99093.56;4981060;28;20460;-71
2022/11/13 01:28:04;;;;;;;240.93;48.47;;;4.00;99.90;;;3.46;100.00;99096.94;4985633;28;20506;-73
2022/11/13 01:30:31;;;;;;;195.60;42.77;;;3.90;99.90;;;3.46;100.00;99093.44;4993614;28;21135;-71
2022/11/13 01:32:59;;;;;;;119.17;36.70;;;3.90;99.90;;;3.35;100.00;99079.25;4992446;28;20479;-73
2022/11/13 01:35:26;;;;;;;164.00;44.80;;;3.80;99.90;;;3.42;100.00;99092.06;4974568;28;20452;-72
2022/11/13 01:37:53;;;;;;;159.23;38.17;;;3.80;99.90;;;3.20;100.00;99092.22;4975995;28;20519;-72
2022/11/13 01:40:20;;;;;;;152.40;37.20;;;3.70;99.90;;;3.14;100.00;99076.75;4985184;28;20780;-72
2022/11/13 01:42:48;;;;;;;176.20;36.50;;;3.60;99.90;;;3.25;100.00;99086.44;4983425;28;20456;-71
2022/11/13 01:46:06;;;;;;;188.63;39.47;;;3.60;99.90;;;3.19;100.00;99079.84;4989876;28;20855;-73
2022/11/13 01:48:39;;;;;;;126.60;33.83;;;3.50;99.90;;;3.16;100.00;99080.09;4967910;28;20460;-72
2022/11/13 01:51:12;;;;;;;83.53;29.17;;;3.50;99.90;;;3.22;99.30;99068.03;4994006;28;20547;-72
2022/11/13 01:53:44;;;;;;;62.70;28.40;;;3.50;99.90;;;3.26;97.86;99069.41;4992791;28;20804;-73
2022/11/13 01:56:12;;;;;;;88.10;28.27;;;3.50;99.90;;;3.02;98.92;99052.03;4977475;28;20459;-70
2022/11/13 01:58:40;;;;;;;65.93;27.13;;;3.40;99.90;;;2.69;99.44;99024.78;4993514;28;20461;-72
2022/11/13 02:01:09;;;;;;;89.10;28.80;;;3.40;99.90;;;2.92;99.32;99053.84;4958139;28;20446;-71
2022/11/13 02:03:37;;;;;;;75.57;26.50;;;3.30;99.90;;;2.90;99.37;99042.47;4976318;28;20463;-72
2022/11/13 02:06:05;;;;;;;77.13;28.37;;;3.30;99.90;;;2.81;99.88;99039.66;4962703;28;21026;-72
2022/11/13 02:08:32;;;;;;;46.30;24.87;;;3.20;99.90;;;2.86;99.24;99035.72;4978287;28;20470;-71
2022/11/13 02:10:59;;;;;;;58.77;25.20;;;3.20;99.90;;;2.79;99.50;99036.28;4978667;28;20573;-69
2022/11/13 02:13:27;;;;;;;45.77;23.83;;;3.20;99.90;;;2.85;99.18;99042.06;4994709;28;20455;-71
2022/11/13 02:15:56;;;;;;;37.23;24.80;;;3.20;99.90;;;2.83;99.16;99027.03;4992089;28;20848;-70
2022/11/13 02:18:27;;;;;;;40.57;23.87;;;3.10;99.90;;;2.86;99.13;99020.53;4993425;28;20506;-72
2022/11/13 02:21:03;;;;;;;34.47;24.20;;;3.10;99.90;;;2.39;98.56;98944.72;4983846;28;20448;-73
2022/11/13 02:23:41;;;;;;;35.00;24.57;;;3.10;99.90;;;2.82;99.13;99008.47;4980175;28;20452;-71
2022/11/13 02:26:11;;;;;;;34.57;24.80;;;3.10;99.90;;;2.83;98.27;99011.00;4977161;28;20625;-71
2022/11/13 02:28:38;;;;;;;29.60;23.03;;;3.10;99.90;;;2.63;98.42;98998.63;4989379;28;20459;-71
2022/11/13 02:31:10;;;;;;;27.70;23.70;;;3.00;99.90;;;2.73;97.60;99004.81;4992530;28;20471;-72
2022/11/13 02:33:37;;;;;;;25.93;21.73;;;2.90;99.90;;;2.61;97.27;98993.44;4968081;28;20467;-72
2022/11/13 02:36:08;;;;;;;23.90;19.20;;;2.80;99.90;;;2.62;96.70;98995.13;4973107;28;20460;-71
2022/11/13 02:38:37;;;;;;;20.97;18.63;;;2.80;99.90;;;2.45;97.81;98999.31;4973401;28;20934;-72
2022/11/13 02:41:04;;;;;;;21.40;18.37;;;2.70;99.90;;;2.47;97.58;98980.53;4989649;28;20552;-71
2022/11/13 02:43:33;;;;;;;19.87;17.73;;;2.80;99.90;;;2.41;97.53;98989.94;4991020;28;20506;-73
2022/11/13 02:46:00;;;;;;;19.10;17.00;;;2.80;99.90;;;2.45;97.16;98999.31;4971366;28;20445;-71
2022/11/13 02:48:28;;;;;;;17.80;16.00;;;2.70;99.90;;;2.50;95.58;98991.78;4973271;28;20460;-73
2022/11/13 02:50:55;;;;;;;19.40;16.37;;;2.60;99.90;;;2.36;95.41;98981.50;4982045;28;20459;-72
2022/11/13 02:53:22;;;;;;;19.00;16.37;;;2.60;99.90;;;2.26;95.40;98987.66;4983358;28;20871;-69
2022/11/13 02:55:49;;;;;;;17.00;15.20;;;2.50;99.90;;;2.22;96.10;98975.59;4981166;28;20521;-75
2022/11/13 02:58:17;;;;;;;17.47;15.70;;;2.50;99.90;;;2.21;95.28;98973.91;4984397;28;20533;-71
2022/11/13 03:00:45;;;;;;;16.30;14.60;;;2.50;99.90;;;2.25;94.95;98975.31;4972206;28;20467;-70
2022/11/13 03:03:12;;;;;;;17.13;15.33;;;2.40;99.90;;;2.16;94.34;98970.78;4982687;28;21106;-72
2022/11/13 03:05:40;;;;;;;16.07;14.10;;;2.40;99.90;;;2.02;94.32;98968.53;4984343;28;20551;-73
2022/11/13 03:08:07;;;;;;;18.13;15.33;;;2.40;99.90;;;1.60;93.94;98887.81;4967225;28;20469;-71
2022/11/13 03:10:34;;;;;;;15.83;14.10;;;2.40;99.90;;;2.06;93.48;98969.97;4995599;28;20952;-71
2022/11/13 03:13:02;;;;;;;15.20;13.63;;;2.30;99.90;;;1.91;94.62;98962.34;4977173;28;21017;-71
2022/11/13 03:15:29;;;;;;;16.77;13.63;;;2.20;99.90;;;1.55;94.30;98898.00;4970144;28;20503;-72
2022/11/13 03:17:57;;;;;;;16.60;14.40;;;2.20;99.90;;;1.91;93.79;98974.81;4985021;28;21001;-73
2022/11/13 03:20:24;;;;;;;16.00;13.70;;;2.20;99.90;;;1.89;93.69;98966.94;4983268;28;20523;-74
2022/11/13 03:22:51;;;;;;;17.30;14.67;;;2.10;99.90;;;1.85;92.96;98962.88;4972001;28;20459;-71
2022/11/13 03:25:19;;;;;;;17.23;14.33;;;2.10;99.90;;;1.84;92.62;98955.88;4983091;28;20463;-71
2022/11/13 03:27:46;;;;;;;14.27;12.07;;;2.10;99.90;;;1.82;92.75;98952.50;4988611;28;20508;-70
2022/11/13 03:30:13;;;;;;;18.00;13.90;;;2.00;99.90;;;1.77;92.99;98952.06;4987325;28;20467;-72
2022/11/13 03:32:41;;;;;;;17.07;14.17;;;1.90;99.90;;;1.67;93.29;98944.06;4986190;28;20479;-70
2022/11/13 03:35:09;;;;;;;14.93;13.37;;;1.80;99.90;;;1.59;93.71;98942.03;4980758;28;20517;-71
2022/11/13 03:37:36;;;;;;;16.80;13.60;;;1.80;99.90;;;1.50;94.89;98953.50;4971840;28;20516;-70
2022/11/13 03:40:05;;;;;;;16.63;13.67;;;1.70;99.90;;;1.46;94.40;98950.25;4984985;28;20466;-73
2022/11/13 03:42:33;;;;;;;15.30;13.70;;;1.60;99.90;;;1.48;94.75;98950.16;4986656;28;20526;-72
2022/11/13 03:45:00;;;;;;;14.97;13.37;;;1.60;99.90;;;1.61;93.95;98944.56;4983212;28;20460;-72
2022/11/13 03:47:27;;;;;;;18.47;13.10;;;1.70;99.90;;;1.61;92.92;98940.09;4984362;28;20463;-71
2022/11/13 03:49:54;;;;;;;12.70;11.40;;;1.70;99.90;;;1.67;92.86;98950.22;4987938;28;21127;-73
2022/11/13 03:52:23;;;;;;;15.30;12.90;;;1.80;99.90;;;1.64;92.90;98939.81;4987988;28;20490;-72
2022/11/13 03:54:50;;;;;;;13.47;11.80;;;1.80;99.90;;;1.62;92.38;98946.25;4971761;28;20450;-72
2022/11/13 03:57:17;;;;;;;16.20;12.23;;;1.80;99.90;;;1.58;92.23;98940.34;4982756;28;20464;-69
2022/11/13 03:59:44;;;;;;;15.10;11.73;;;1.80;99.90;;;1.38;92.58;98945.59;4988132;28;20458;-73
2022/11/13 04:02:11;;;;;;;14.97;12.70;;;1.60;99.90;;;1.36;92.77;98947.56;4984395;28;20533;-72
2022/11/13 04:04:38;;;;;;;13.17;11.77;;;1.50;99.90;;;1.40;92.72;98943.66;4986467;28;20516;-72
2022/11/13 04:07:06;;;;;;;16.23;12.37;;;1.60;99.90;;;1.34;92.74;98941.53;4986007;28;20904;-71
2022/11/13 04:09:34;;;;;;;15.47;11.97;;;1.50;99.90;;;1.32;92.42;98924.84;4987343;28;20543;-71
2022/11/13 04:12:02;;;;;;;12.37;11.07;;;1.50;99.90;;;1.31;92.76;98922.31;4981020;28;20482;-70
2022/11/13 04:14:29;;;;;;;12.63;11.30;;;1.50;99.90;;;1.21;92.46;98908.97;4983160;28;20454;-72
2022/11/13 04:16:56;;;;;;;16.30;13.80;;;1.50;99.90;;;1.02;94.35;98915.88;4982770;28;20520;-72
2022/11/13 04:19:23;;;;;;;18.83;14.20;;;1.40;99.90;;;0.94;95.14;98915.69;4989115;28;20458;-72
2022/11/13 04:21:50;;;;;;;16.87;14.10;;;1.30;99.90;;;0.92;95.42;98915.84;4984555;28;20975;-71
2022/11/13 04:24:17;;;;;;;16.87;14.17;;;1.20;99.90;;;0.81;94.28;98889.31;4985655;28;20538;-72
2022/11/13 04:26:45;;;;;;;18.20;15.37;;;1.20;99.90;;;0.93;94.20;98922.84;4972902;28;20537;-70
2022/11/13 04:29:13;;;;;;;20.00;16.10;;;1.20;99.90;;;0.95;93.69;98917.38;4987621;28;20453;-70
2022/11/13 04:31:40;;;;;;;20.33;15.47;;;1.20;99.90;;;0.77;93.91;98920.63;4987371;28;20576;-71
2022/11/13 04:34:08;;;;;;;17.90;16.00;;;1.10;99.90;;;0.62;93.85;98921.94;4991015;28;20461;-71
2022/11/13 04:36:35;;;;;;;18.40;15.70;;;1.00;99.90;;;0.50;93.61;98923.81;4991887;28;20458;-72
2022/11/13 04:39:02;;;;;;;20.60;16.77;;;0.90;99.90;;;0.26;93.90;98915.09;4982208;28;20537;-74
2022/11/13 04:44:16;;;;;;;28.03;20.20;;;0.70;99.90;;;0.04;94.66;98923.16;4953536;28;20872;-72
2022/11/13 04:46:43;;;;;;;23.93;18.03;;;0.50;99.90;;;-0.01;94.49;98911.09;4972649;28;20542;-71
2022/11/13 04:49:10;;;;;;;27.13;20.80;;;0.50;99.90;;;-0.57;93.93;98824.44;4971789;28;20456;-72
2022/11/13 04:51:37;;;;;;;28.63;20.27;;;0.40;99.90;;;-0.15;94.76;98909.56;4982212;28;20496;-70
2022/11/13 04:54:05;;;;;;;21.00;18.80;;;0.40;99.90;;;-0.08;94.50;98906.41;4969528;28;20483;-72
2022/11/13 04:56:32;;;;;;;24.70;20.40;;;0.40;99.90;;;-0.15;94.72;98908.72;4977795;28;20449;-71
2022/11/13 04:58:59;;;;;;;28.00;20.00;;;0.30;99.90;;;-0.31;95.78;98902.00;4990528;28;20970;-71
2022/11/13 05:01:28;;;;;;;32.30;22.30;;;0.20;99.90;;;-0.40;95.43;98894.75;4975889;28;20443;-72
2022/11/13 05:03:55;;;;;;;38.00;24.23;;;0.20;99.90;;;-0.38;96.37;98903.47;4971520;28;20588;-72
2022/11/13 05:06:22;;;;;;;51.87;26.10;;;0.10;99.90;;;-0.37;95.94;98898.97;4964502;28;20525;-70
2022/11/13 05:08:49;;;;;;;58.93;26.60;;;0.20;99.90;;;-0.57;96.29;98867.75;4979166;28;20482;-71
2022/11/13 05:11:16;;;;;;;55.73;24.50;;;0.10;99.90;;;-0.50;96.57;98885.88;4981784;28;20473;-70
2022/11/13 05:13:43;;;;;;;73.07;26.70;;;0.10;99.90;;;-0.27;96.00;98888.47;4999141;28;20454;-71
2022/11/13 05:16:13;;;;;;;106.23;29.70;;;0.10;99.90;;;-0.42;95.51;98886.06;4973989;28;20511;-71
2022/11/13 05:18:42;;;;;;;102.47;27.93;;;0.20;99.90;;;-0.48;96.49;98890.06;4982438;28;20455;-71
2022/11/13 05:21:10;;;;;;;61.77;24.43;;;0.10;99.90;;;-0.45;96.64;98886.31;4991048;28;20917;-69
2022/11/13 05:23:37;;;;;;;63.53;24.67;;;0.10;99.90;;;-0.48;96.52;98897.19;4988344;28;21026;-72
2022/11/13 05:26:06;;;;;;;86.17;27.00;;;0.00;99.90;;;-0.81;97.41;98880.34;4970083;28;20867;-72
2022/11/13 05:28:33;;;;;;;53.20;22.03;;;-0.10;99.90;;;-0.59;97.53;98904.19;4974118;28;20454;-71
2022/11/13 05:31:06;;;;;;;40.80;22.00;;;-0.20;99.90;;;-0.80;96.63;98888.16;4960872;28;20969;-71
2022/11/13 05:33:33;;;;;;;37.03;22.97;;;-0.20;99.90;;;-0.88;97.71;98880.81;4962461;28;20831;-71
2022/11/13 05:36:09;;;;;;;41.10;23.53;;;-0.30;99.90;;;-0.79;96.46;98889.03;4968614;28;20518;-71
2022/11/13 05:38:37;;;;;;;32.30;21.60;;;-0.20;99.90;;;-1.45;96.82;98782.66;4971088;28;20865;-71
2022/11/13 05:41:07;;;;;;;33.53;22.63;;;-0.30;99.90;;;-0.86;97.36;98868.25;4971085;28;20951;-72
2022/11/13 05:43:35;;;;;;;45.80;25.07;;;-0.40;99.90;;;-0.84;97.69;98870.81;4956899;28;20471;-71
2022/11/13 05:46:03;;;;;;;43.90;26.00;;;-0.40;99.90;;;-0.84;96.81;98859.34;4979315;28;20645;-70
2022/11/13 05:48:30;;;;;;;41.13;22.87;;;-0.30;99.90;;;-0.70;96.78;98859.09;4969660;28;20866;-74
2022/11/13 05:51:02;;;;;;;42.17;25.97;;;-0.30;99.90;;;-0.76;96.54;98856.94;4974782;28;20457;-71
2022/11/13 05:53:32;;;;;;;36.73;25.33;;;-0.30;99.90;;;-0.67;96.43;98856.22;4982792;28;20451;-72
2022/11/13 05:56:01;;;;;;;62.10;25.53;;;-0.20;99.90;;;-0.84;96.39;98848.72;4973059;28;20800;-71
2022/11/13 05:58:29;;;;;;;47.73;25.97;;;-0.30;99.90;;;-0.84;95.73;98848.72;4973462;28;20504;-72
2022/11/13 06:01:07;;;;;;;66.47;27.47;;;-0.40;99.90;;;-0.98;96.09;98861.31;4983729;28;20993;-71
2022/11/13 06:03:34;;;;;;;66.43;28.23;;;-0.50;99.90;;;-1.11;97.54;98842.00;4977066;28;20541;-71
2022/11/13 06:06:02;;;;;;;53.07;28.50;;;-0.60;99.90;;;-1.02;97.63;98841.25;4991400;28;20521;-69
2022/11/13 06:08:30;;;;;;;42.10;24.03;;;-0.50;99.90;;;-0.81;96.71;98853.81;4977826;28;20483;-71
2022/11/13 06:11:02;;;;;;;38.60;24.03;;;-0.50;99.90;;;-1.10;97.13;98841.03;4993655;28;20485;-72
2022/11/13 06:13:30;;;;;;;49.70;26.67;;;-0.50;99.90;;;-1.09;97.62;98856.81;4970437;28;20506;-73
2022/11/13 06:16:02;;;;;;;78.40;28.57;;;-0.60;99.90;;;-1.09;97.37;98837.41;4970308;28;20451;-74
2022/11/13 06:18:30;;;;;;;80.70;27.50;;;-0.60;99.90;;;-1.23;97.77;98822.56;4977922;28;20447;-73
2022/11/13 06:21:02;;;;;;;113.13;29.27;;;-0.60;99.90;;;-1.20;97.63;98848.88;4973841;28;20504;-72
2022/11/13 06:23:33;;;;;;;84.47;27.80;;;-0.70;99.90;;;-1.21;98.14;98855.16;4979742;28;20581;-73
2022/11/13 06:26:01;;;;;;;46.93;25.87;;;-0.60;99.90;;;-0.82;98.16;98847.66;4984785;28;20459;-73
2022/11/13 06:28:28;;;;;;;57.83;26.63;;;-0.50;99.90;;;-0.73;97.12;98846.06;4970868;28;20950;-72
2022/11/13 06:30:56;;;;;;;37.17;22.67;;;-0.40;99.90;;;-0.57;96.48;98846.50;4986938;28;20460;-72
2022/11/13 06:33:23;;;;;;;42.77;23.73;;;-0.30;99.90;;;-0.45;95.94;98854.47;4989760;28;20534;-71
2022/11/13 06:35:50;;;;;;;39.00;25.53;;;-0.20;99.90;;;-0.48;95.99;98849.41;4988814;28;20461;-72
2022/11/13 06:38:17;;;;;;;89.77;24.33;;;-0.20;99.90;;;-0.43;95.74;98844.56;4988095;28;21100;-71
2022/11/13 06:40:45;;;;;;;32.50;21.93;;;-0.10;99.90;;;-0.30;95.66;98834.63;4971990;28;20787;-71
2022/11/13 06:43:12;;;;;;;43.53;25.40;;;0.00;99.90;;;-0.55;95.27;98834.94;4990014;28;20538;-73
2022/11/13 06:45:40;;;;;;;38.37;24.27;;;-0.10;99.90;;;-0.46;95.93;98829.72;4990694;28;20581;-71
2022/11/13 06:48:07;;;;;;;49.93;27.23;;;0.00;99.90;;;-0.51;96.09;98825.78;4980343;28;20612;-69
2022/11/13 06:50:34;;;;;;;37.23;25.57;;;0.00;99.90;;;-0.39;96.24;98839.84;4979753;28;20955;-69
2022/11/13 06:53:01;;;;;;;25.70;21.17;;;0.00;99.90;;;-0.35;95.40;98855.41;4986021;28;20865;-70
2022/11/13 06:55:28;;;;;;;27.67;22.23;;;0.00;99.90;;;-0.24;95.45;98846.56;4977985;28;20455;-70
2022/11/13 06:57:57;;;;;;;29.07;23.13;;;0.10;99.90;;;-0.18;95.45;98832.75;4989561;28;20493;-71
2022/11/13 07:00:24;;;;;;;30.17;23.40;;;0.20;99.90;;;0.01;94.80;98830.41;4989348;28;20463;-70
2022/11/13 07:02:52;;;;;;;25.30;22.17;;;0.30;99.90;;;-0.03;94.57;98843.94;4986074;28;20490;-69
2022/11/13 07:05:19;;;;;;;26.23;21.40;;;0.30;99.90;;;0.05;94.36;98850.44;4983903;28;20965;-69
2022/11/13 07:07:46;;;;;;;25.93;22.20;;;0.20;99.90;;;0.05;93.55;98850.44;4983756;28;20919;-70
2022/11/13 07:10:13;;;;;;;23.30;20.80;;;0.30;99.90;;;0.02;93.69;98830.28;4975529;28;20560;-70
2022/11/13 07:12:41;;;;;;;27.73;22.60;;;0.30;99.90;;;-0.02;94.32;98829.69;4959856;28;20895;-69
2022/11/13 07:15:10;;;;;;;26.13;22.60;;;0.40;99.90;;;-0.11;94.87;98816.34;4983899;28;20572;-68
2022/11/13 07:17:37;;;;;;;29.47;24.53;;;0.30;99.90;;;-0.05;95.02;98814.00;4983943;28;20468;-69
2022/11/13 07:20:06;;;;;;;29.00;24.00;;;0.30;99.90;;;0.10;95.50;98800.41;4984739;28;20528;-69
2022/11/13 07:22:33;;;;;;;27.10;23.20;;;0.40;99.90;;;0.07;94.72;98800.66;4988957;28;20863;-67
2022/11/13 07:25:00;;;;;;;30.40;25.03;;;0.40;99.90;;;0.30;94.59;98813.81;4980684;28;21016;-68
2022/11/13 07:27:27;;;;;;;31.33;24.50;;;0.60;99.90;;;0.42;94.27;98821.59;4987882;28;20465;-67
2022/11/13 07:29:54;;;;;;;39.53;26.30;;;0.70;99.90;;;0.50;94.04;98831.56;4987783;28;20538;-67
2022/11/13 07:32:23;;;;;;;32.40;26.30;;;0.70;99.90;;;0.55;93.32;98825.88;4989518;28;20454;-67
2022/11/13 07:34:50;;;;;;;28.10;24.10;;;0.80;99.90;;;0.31;93.40;98813.72;4988565;28;20990;-69
2022/11/13 07:37:17;;;;;;;29.80;24.70;;;0.70;99.90;;;0.28;93.91;98804.16;4985750;28;20525;-69
2022/11/13 07:39:44;;;;;;;36.77;25.27;;;0.70;99.90;;;0.30;94.47;98811.16;4983044;28;20558;-68
2022/11/13 07:42:12;;;;;;;27.47;22.27;;;0.70;99.90;;;0.32;94.13;98802.09;4966538;28;20452;-66
2022/11/13 07:44:39;;;;;;;26.50;21.80;;;0.70;99.90;;;0.50;94.18;98794.34;4981839;28;20522;-68
2022/11/13 07:47:06;;;;;;;25.53;22.57;;;0.70;99.90;;;0.60;93.75;98786.41;4977712;28;20499;-68
2022/11/13 07:49:34;;;;;;;28.67;22.20;;;0.80;99.90;;;0.58;93.89;98783.03;4984622;28;20560;-68
2022/11/13 07:52:01;;;;;;;23.47;21.00;;;0.90;99.90;;;0.75;93.50;98784.25;4965761;28;20467;-68
2022/11/13 07:54:28;;;;;;;24.93;22.27;;;1.00;99.90;;;0.86;93.23;98787.81;4981425;28;20554;-68
2022/11/13 07:56:55;;;;;;;23.33;20.83;;;1.10;99.90;;;0.98;92.74;98784.03;4967093;28;20454;-70
2022/11/13 07:59:23;;;;;;;25.40;22.90;;;1.10;99.90;;;0.93;93.11;98788.94;4983834;28;20513;-68
2022/11/13 08:01:50;;;;;;;21.87;19.57;;;1.10;99.90;;;0.94;93.20;98779.97;4985414;28;21009;-68
2022/11/13 08:04:17;;;;;;;24.30;21.70;;;1.20;99.90;;;1.18;92.79;98776.13;4975681;28;20619;-68
2022/11/13 08:06:45;;;;;;;23.90;21.47;;;1.30;99.90;;;1.24;92.56;98763.13;4968793;28;20471;-67
2022/11/13 08:09:13;;;;;;;24.77;22.13;;;1.40;99.90;;;1.38;92.70;98759.19;4982507;28;20809;-67
2022/11/13 08:11:40;;;;;;;23.00;20.70;;;1.50;99.90;;;1.44;92.62;98762.28;4968742;28;20469;-67
2022/11/13 08:14:07;;;;;;;23.43;21.00;;;1.60;99.90;;;1.51;92.53;98763.41;4984921;28;20459;-68
2022/11/13 08:16:35;;;;;;;28.90;22.53;;;1.70;99.90;;;1.70;92.27;98766.09;4991016;28;20459;-68
2022/11/13 08:19:04;;;;;;;25.57;22.43;;;1.80;99.90;;;1.65;92.46;98756.81;4989472;28;20459;-67
2022/11/13 08:21:31;;;;;;;29.97;24.47;;;1.90;99.90;;;1.77;92.25;98752.22;4977296;28;20532;-68
2022/11/13 08:24:00;;;;;;;26.73;23.83;;;2.00;99.90;;;1.75;92.39;98748.84;4977436;28;20529;-69
2022/11/13 08:26:27;;;;;;;24.10;21.30;;;2.10;99.90;;;1.86;92.17;98751.34;4977066;28;20514;-72
2022/11/13 08:28:54;;;;;;;22.90;20.30;;;2.10;99.90;;;2.04;93.40;98747.97;4982386;28;20461;-68
2022/11/13 08:31:22;;;;;;;24.60;22.10;;;2.20;99.90;;;2.09;92.06;98737.72;4955955;28;21128;-68
2022/11/13 08:33:49;;;;;;;25.00;22.37;;;2.30;99.90;;;1.95;92.17;98733.66;4970283;28;20484;-71
2022/11/13 08:36:16;;;;;;;24.40;21.80;;;2.30;99.90;;;1.80;92.11;98714.63;4980203;28;20518;-68
2022/11/13 08:38:43;;;;;;;22.40;20.00;;;2.20;99.90;;;1.78;92.74;98697.94;4983378;28;20938;-67
2022/11/13 08:41:12;;;;;;;24.67;22.20;;;2.10;99.90;;;1.91;92.77;98689.63;4967343;28;21002;-67
2022/11/13 08:43:39;;;;;;;23.80;21.23;;;2.20;99.90;;;1.83;92.71;98695.69;4981955;28;20481;-67
2022/11/13 08:46:07;;;;;;;24.30;21.70;;;2.20;99.90;;;1.70;92.61;98682.66;4957129;28;20449;-66
2022/11/13 08:48:35;;;;;;;24.33;21.83;;;2.20;99.90;;;1.73;92.93;98682.38;4978295;28;20522;-67
2022/11/13 08:51:02;;;;;;;24.07;21.50;;;2.20;99.90;;;1.86;92.64;98676.72;4975703;28;20498;-69
2022/11/13 08:53:29;;;;;;;24.10;21.03;;;2.20;99.90;;;1.88;92.75;98668.59;4977787;28;20538;-68
2022/11/13 08:56:01;;;;;;;23.23;20.73;;;2.20;99.90;;;2.06;92.14;98674.03;4957911;28;20498;-69
2022/11/13 08:58:30;;;;;;;23.60;21.13;;;2.40;99.90;;;2.26;91.30;98667.66;4965489;28;20453;-68
2022/11/13 09:01:00;;;;;;;22.70;20.33;;;2.50;99.90;;;2.44;91.97;98666.88;4982247;28;20460;-68
2022/11/13 09:03:27;;;;;;;23.80;21.47;;;2.60;99.90;;;2.63;91.01;98673.09;4965684;28;20476;-68
2022/11/13 09:05:55;;;;;;;24.53;22.13;;;2.80;99.90;;;2.59;90.14;98661.06;4985162;28;20589;-68
2022/11/13 09:08:22;;;;;;;23.60;21.30;;;2.90;99.90;;;2.57;90.81;98679.03;4967795;28;20486;-68
2022/11/13 09:10:49;;;;;;;21.33;19.13;;;2.80;99.90;;;2.70;89.83;98668.84;4971582;28;20980;-70
2022/11/13 09:13:16;;;;;;;20.53;18.47;;;3.00;99.90;;;2.82;89.99;98662.34;4988268;28;20447;-67
2022/11/13 09:15:45;;;;;;;22.10;19.97;;;3.10;99.90;;;3.05;90.49;98661.06;4959438;28;20471;-67
2022/11/13 09:18:12;;;;;;;19.73;17.70;;;3.20;99.90;;;3.26;89.83;98674.09;4969191;28;20528;-66
2022/11/13 09:20:39;;;;;;;20.63;18.50;;;3.40;99.90;;;3.52;88.91;98684.03;4988245;28;20460;-68
2022/11/13 09:23:08;;;;;;;21.30;19.10;;;3.60;99.90;;;3.68;87.85;98667.31;4985675;28;20879;-68
2022/11/13 09:25:36;;;;;;;22.23;19.50;;;3.80;99.90;;;3.75;88.46;98662.19;4964140;28;20459;-69
2022/11/13 09:28:05;;;;;;;21.87;19.70;;;3.90;99.90;;;3.94;87.68;98667.31;4967318;28;20479;-71
2022/11/13 09:30:33;;;;;;;20.60;18.47;;;4.10;99.90;;;4.09;87.23;98662.25;4985908;28;20463;-66
2022/11/13 09:33:02;;;;;;;21.10;19.03;;;4.20;99.90;;;4.16;86.96;98654.41;4987694;28;20472;-68
2022/11/13 09:35:34;;;;;;;20.13;18.13;;;4.40;99.70;;;4.33;86.53;98671.38;4985412;28;20447;-69
2022/11/13 09:38:02;;;;;;;21.23;19.23;;;4.50;99.90;;;4.56;85.61;98662.81;4972322;28;20522;-68
2022/11/13 09:40:33;;;;;;;20.87;18.97;;;4.70;97.10;;;4.59;85.17;98659.81;4980154;28;20460;-68
2022/11/13 09:43:03;;;;;;;20.37;18.30;;;4.80;96.40;;;4.75;84.02;98669.72;4967367;28;20642;-67
2022/11/13 09:45:32;;;;;;;18.30;16.60;;;4.90;94.20;;;4.58;85.13;98609.09;4983628;28;20463;-69
2022/11/13 09:48:12;;;;;;;18.87;17.07;;;5.00;95.60;;;5.11;85.12;98657.94;4971696;28;20526;-68
2022/11/13 09:50:40;;;;;;;19.20;17.40;;;5.10;97.10;;;5.30;84.74;98662.16;4969881;28;20664;-67
2022/11/13 09:53:10;;;;;;;19.90;18.00;;;5.30;97.80;;;5.48;83.42;98655.81;4988550;28;20467;-69
2022/11/13 09:55:53;;;;;;;19.00;17.20;;;5.40;95.50;;;5.62;83.44;98657.81;4986774;28;20460;-69
2022/11/13 09:58:28;;;;;;;19.00;17.10;;;5.60;95.10;;;5.78;82.50;98658.81;4973067;28;20456;-68
2022/11/13 10:00:58;;;;;;;17.50;15.70;;;5.70;93.40;;;5.92;80.98;98671.53;4989555;28;20459;-70
2022/11/13 10:03:36;;;;;;;18.03;16.43;;;5.90;92.20;;;6.11;80.66;98641.88;4986550;28;20475;-69
2022/11/13 10:06:14;;;;;;;16.93;15.23;;;6.10;92.00;;;6.27;79.24;98649.03;4989637;28;20459;-70
2022/11/13 10:09:00;;;;;;;16.80;15.30;;;6.30;90.80;;;6.52;79.61;98656.00;4988850;28;20471;-70
2022/11/13 10:11:46;;;;;;;17.20;15.60;;;6.50;91.10;;;6.71;78.95;98643.16;4985413;28;20530;-70
2022/11/13 10:14:19;;;;;;;17.40;15.70;;;6.60;90.90;;;6.75;78.23;98641.81;4988777;28;20455;-70
2022/11/13 10:16:52;;;;;;;17.87;15.77;;;6.70;90.50;;;6.96;76.99;98645.75;4990571;28;20452;-71
2022/11/13 10:19:28;;;;;;;16.87;15.27;;;6.90;88.00;;;7.07;77.68;98648.03;4973509;28;20457;-72
2022/11/13 10:22:03;;;;;;;18.47;16.77;;;7.10;89.60;;;7.21;77.31;98640.22;4989627;28;20444;-72
2022/11/13 10:24:41;;;;;;;17.67;16.07;;;7.20;89.90;;;7.39;78.75;98644.47;4971567;28;20525;-73